Nikea — LZH2324 — position and weather

sailwx.info

Track history (hours):
 
Tides and Currents Weather Stations Pressure Air Temp Water Temp Dewpoint Dewpoint Depression Visibility Wind Speed Wind Dir Waves Ship Positions

Nikea

Last reported at 2018-Jul-15 09:06 UTC. Time now 2018-Jul-21 11:10 UTC.
Position N 40°45' E 024°47'.

Length 14 m.

Type: Sailing vessel. MMSI: 207823240.

Date/timePositionNaut miles runAvg speedWind from/ knotsBaromVisibWave heightAir tempDewpointWater temp
2018-Jul-15 09:06N 40°45' E 024°47'1 5.3
2018-Jul-15 08:58N 40°45' E 024°46'0 0.3
2018-Jul-15 08:08N 40°45' E 024°46'0 0.0
2018-Jul-15 07:50N 40°45' E 024°46'0 1.1
2018-Jul-15 07:28N 40°45' E 024°46'2 4.4
2018-Jul-15 07:00N 40°47' E 024°45'2 3.2
2018-Jul-15 06:30N 40°47' E 024°42'0 0.0
2018-Jul-14 15:40N 40°47' E 024°42'0 0.0
2018-Jul-14 15:28N 40°47' E 024°42'1 2.7
2018-Jul-14 14:57N 40°48' E 024°41'3 6.8
2018-Jul-14 14:28N 40°50' E 024°37'7 6.8
2018-Jul-14 13:30N 40°53' E 024°30'3 6.8
2018-Jul-14 13:00N 40°55' E 024°26'2 0.4
2018-Jul-14 08:55N 40°56' E 024°24'14 0.3
2018-Jul-12 13:10N 40°43' E 024°29'1 6.3
2018-Jul-12 12:57N 40°42' E 024°30'  
Track history (hours):
 
Tides and Currents Weather Stations Pressure Air Temp Water Temp Dewpoint Dewpoint Depression Visibility Wind Speed Wind Dir Waves Ship Positions

Nikea

Last reported at 2018-Jul-15 09:06 UTC. Time now 2018-Jul-21 11:10 UTC.
Position N 40°45' E 024°47'.

Length 14 m.

Type: Sailing vessel. MMSI: 207823240.

Date/timePositionNaut miles runAvg speedWind from/ knotsBaromVisibWave heightAir tempDewpointWater temp
2018-Jul-15 09:06N 40°45' E 024°47'1 5.3
2018-Jul-15 08:58N 40°45' E 024°46'0 0.3
2018-Jul-15 08:08N 40°45' E 024°46'0 0.0
2018-Jul-15 07:50N 40°45' E 024°46'0 1.1
2018-Jul-15 07:28N 40°45' E 024°46'2 4.4
2018-Jul-15 07:00N 40°47' E 024°45'2 3.2
2018-Jul-15 06:30N 40°47' E 024°42'0 0.0
2018-Jul-14 15:40N 40°47' E 024°42'0 0.0
2018-Jul-14 15:28N 40°47' E 024°42'1 2.7
2018-Jul-14 14:57N 40°48' E 024°41'3 6.8
2018-Jul-14 14:28N 40°50' E 024°37'7 6.8
2018-Jul-14 13:30N 40°53' E 024°30'3 6.8
2018-Jul-14 13:00N 40°55' E 024°26'2 0.4
2018-Jul-14 08:55N 40°56' E 024°24'14 0.3
2018-Jul-12 13:10N 40°43' E 024°29'1 6.3
2018-Jul-12 12:57N 40°42' E 024°30'  

Dump ship's entire track history